Penasco, New Mexico
Current Conditions -  °F | °C
As of 7:55 PM on Friday 21 Nov 2014 (Local Time) from KSKX Reporting Station
Clear Clear  
Wind Chill: 25°   Ceiling: Unl
Heat Index: 30°   Visibility: 10mi
Dew Point: 21°   Wind: 5mph
Humidity: 69%   Direction: 70°ENE
Pressure: 30.09"   Gusts: NA
Location:  36.17°N, 105.69°W
Report Text: KSKX 220255Z AUTO 07004KT 10SM CLR M01/M06 A3009 RMK AO1 52010
Loading
Personal Weather Stations






























Interactive Weather Map New forecast layout! Learn more

10-Day Weather Forecast

Advertisements
Track Severe Weather on mobile